Time;durP1;ratioP1;P1;durP2;ratioP2;P2;SDS_P1;SDS_P2;PMS_P1;PMS_P2;Temp;Humidity;BMP_temperature;BMP_pressure;BME280_temperature;BME280_humidity;BME280_pressure;Samples;Min_cycle;Max_cycle;Signal;HPM_P1;HPM_P2
2023/01/21 00:01:59;;;;;;;40.28;29.67;;;18.60;89.70;;;;;;1902778;74;21670;-85
2023/01/21 00:04:33;;;;;;;34.27;26.40;;;18.60;89.40;;;;;;1888548;74;21050;-84
2023/01/21 00:07:02;;;;;;;35.50;24.63;;;18.60;89.30;;;;;;1883497;74;21160;-85
2023/01/21 00:09:33;;;;;;;37.80;27.00;;;18.60;89.40;;;;;;1884354;75;21159;-85
2023/01/21 00:12:04;;;;;;;51.68;36.80;;;18.60;89.70;;;;;;1878304;74;21198;-85
2023/01/21 00:14:35;;;;;;;39.70;28.62;;;;;;;;;;1890195;75;21629;-85
2023/01/21 00:17:06;;;;;;;38.35;28.38;;;18.70;88.30;;;;;;1919913;73;21564;-83
2023/01/21 00:19:37;;;;;;;43.92;30.90;;;18.70;89.00;;;;;;1938882;73;21189;-84
2023/01/21 00:22:08;;;;;;;31.90;24.07;;;18.70;89.10;;;;;;1891885;74;21766;-86
2023/01/21 00:24:39;;;;;;;35.17;23.00;;;18.80;88.90;;;;;;1907507;74;21100;-88
2023/01/21 00:27:10;;;;;;;29.37;21.05;;;18.80;88.50;;;;;;1887766;74;21037;-85
2023/01/21 00:29:40;;;;;;;31.57;22.05;;;18.80;88.50;;;;;;1909007;74;21512;-87
2023/01/21 00:32:11;;;;;;;44.67;29.82;;;18.90;88.50;;;;;;1901162;74;21137;-86
2023/01/21 00:34:42;;;;;;;35.52;24.43;;;18.90;88.50;;;;;;1895868;74;21137;-87
2023/01/21 00:37:13;;;;;;;46.25;30.23;;;18.90;88.30;;;;;;1928509;73;21044;-88
2023/01/21 00:39:44;;;;;;;48.17;31.45;;;18.90;88.00;;;;;;1900987;74;21627;-86
2023/01/21 00:42:15;;;;;;;34.20;23.20;;;18.90;87.80;;;;;;1900767;74;21666;-87
2023/01/21 00:44:45;;;;;;;47.30;30.80;;;19.00;87.70;;;;;;1880033;74;21195;-86
2023/01/21 00:47:18;;;;;;;38.08;24.27;;;19.00;87.50;;;;;;1872756;74;21085;-88
2023/01/21 00:49:49;;;;;;;35.75;23.38;;;19.00;88.00;;;;;;1882786;74;21214;-88
2023/01/21 00:52:19;;;;;;;33.95;22.75;;;19.10;88.00;;;;;;1884360;74;21077;-88
2023/01/21 00:54:50;;;;;;;31.70;22.40;;;19.00;87.80;;;;;;1917995;74;21200;-89
2023/01/21 00:57:21;;;;;;;33.73;22.30;;;19.00;87.70;;;;;;1862865;75;21088;-88
2023/01/21 00:59:52;;;;;;;37.03;23.70;;;19.10;87.60;;;;;;1894522;74;21101;-88
2023/01/21 01:02:24;;;;;;;33.05;21.85;;;19.10;88.00;;;;;;1901847;74;21171;-88
2023/01/21 01:04:55;;;;;;;29.18;20.17;;;19.10;87.80;;;;;;1893497;75;21133;-90
2023/01/21 01:07:25;;;;;;;27.52;19.77;;;19.20;87.50;;;;;;1900709;73;21220;-89
2023/01/21 01:09:56;;;;;;;32.95;21.48;;;19.20;88.10;;;;;;1897342;75;21117;-89
2023/01/21 01:12:29;;;;;;;26.75;19.75;;;19.30;87.40;;;;;;1897007;75;21083;-88
2023/01/21 01:15:00;;;;;;;28.90;19.50;;;19.30;87.10;;;;;;1890194;74;21144;-88
2023/01/21 01:17:30;;;;;;;30.75;21.57;;;19.30;87.10;;;;;;1857541;74;21146;-89
2023/01/21 01:20:03;;;;;;;28.95;21.35;;;19.30;87.30;;;;;;1839709;78;21304;-87
2023/01/21 01:22:34;;;;;;;27.80;21.50;;;19.30;87.70;;;;;;1845198;76;21234;-89
2023/01/21 01:25:06;;;;;;;28.87;19.77;;;19.40;87.50;;;;;;1828176;76;21174;-90
2023/01/21 01:27:40;;;;;;;29.98;21.37;;;19.40;87.00;;;;;;1843693;77;21144;-88
2023/01/21 01:30:11;;;;;;;29.75;20.45;;;19.50;87.20;;;;;;1859523;77;21280;-88
2023/01/21 01:32:43;;;;;;;28.47;20.82;;;19.50;86.70;;;;;;1827535;78;21153;-88
2023/01/21 01:35:15;;;;;;;29.02;21.87;;;19.60;87.10;;;;;;1875673;75;21091;-85
2023/01/21 01:37:45;;;;;;;33.40;22.37;;;19.60;87.40;;;;;;1839328;77;21142;-88
2023/01/21 01:40:17;;;;;;;31.35;21.97;;;19.60;87.60;;;;;;1835702;77;21092;-87
2023/01/21 01:42:47;;;;;;;29.65;20.70;;;19.70;87.60;;;;;;1864085;76;21187;-83
2023/01/21 01:45:20;;;;;;;32.00;22.13;;;19.70;87.30;;;;;;1821145;78;21134;-85
2023/01/21 01:47:59;;;;;;;29.30;19.90;;;19.70;87.20;;;;;;1837567;77;21131;-87
2023/01/21 01:50:33;;;;;;;31.62;21.70;;;19.80;86.80;;;;;;1841099;77;21566;-86
2023/01/21 01:53:03;;;;;;;30.75;22.00;;;19.90;86.60;;;;;;1834214;77;21083;-86
2023/01/21 01:55:37;;;;;;;31.62;22.73;;;19.90;86.80;;;;;;1856196;76;21093;-87
2023/01/21 01:58:10;;;;;;;34.65;24.50;;;19.90;86.50;;;;;;1841060;77;21142;-87
2023/01/21 02:00:41;;;;;;;33.85;23.52;;;19.90;86.90;;;;;;1852445;77;21133;-86
2023/01/21 02:06:02;;;;;;;36.50;23.67;;;20.00;87.20;;;;;;1862147;76;21120;-86
2023/01/21 02:08:35;;;;;;;34.00;23.57;;;20.10;86.70;;;;;;1828027;77;21676;-86
2023/01/21 02:11:13;;;;;;;35.68;24.15;;;20.10;87.10;;;;;;1881130;75;21200;-86
2023/01/21 02:13:46;;;;;;;35.45;24.30;;;20.20;86.80;;;;;;1883613;75;21151;-87
2023/01/21 02:16:38;;;;;;;31.37;22.17;;;20.20;86.60;;;;;;1885378;73;21127;-86
2023/01/21 02:19:37;;;;;;;33.48;24.60;;;20.30;86.90;;;;;;1878076;75;21123;-86
2023/01/21 02:22:32;;;;;;;31.75;22.40;;;20.30;86.90;;;;;;1880793;75;21280;-84
2023/01/21 02:25:39;;;;;;;31.07;21.35;;;20.30;86.70;;;;;;1863880;76;21168;-86
2023/01/21 02:28:37;;;;;;;34.58;21.23;;;20.40;86.60;;;;;;1848125;76;21180;-86
2023/01/21 02:31:16;;;;;;;30.10;20.37;;;20.50;86.30;;;;;;1844796;75;21208;-86
2023/01/21 02:34:07;;;;;;;28.02;20.68;;;20.50;85.60;;;;;;1874695;74;21233;-85
2023/01/21 02:36:43;;;;;;;32.28;20.65;;;20.50;85.70;;;;;;1876287;75;21093;-87
2023/01/21 02:39:23;;;;;;;27.60;20.60;;;20.60;85.70;;;;;;1857417;76;21142;-86
2023/01/21 02:42:14;;;;;;;31.37;21.05;;;20.70;85.40;;;;;;1878200;75;21173;-86
2023/01/21 02:45:02;;;;;;;30.02;21.07;;;20.80;85.10;;;;;;1866314;76;21139;-87
2023/01/21 02:47:56;;;;;;;27.17;19.60;;;20.80;84.70;;;;;;1785054;78;21174;-90
2023/01/21 02:50:33;;;;;;;29.37;20.77;;;20.80;84.30;;;;;;1840889;76;21052;-87
2023/01/21 02:53:04;;;;;;;33.05;21.45;;;20.90;84.40;;;;;;1845314;76;21611;-86
2023/01/21 02:55:39;;;;;;;31.62;22.07;;;21.00;84.40;;;;;;1884958;74;21196;-88
2023/01/21 02:58:14;;;;;;;28.27;20.37;;;21.00;84.40;;;;;;1878439;75;21608;-86
2023/01/21 03:00:50;;;;;;;28.02;21.27;;;21.00;84.40;;;;;;1866905;75;21189;-86
2023/01/21 03:03:47;;;;;;;31.73;21.68;;;21.10;84.10;;;;;;1859182;75;21106;-88
2023/01/21 03:06:35;;;;;;;27.98;20.52;;;21.10;84.00;;;;;;1855618;75;21126;-87
2023/01/21 03:09:26;;;;;;;29.35;21.97;;;21.20;83.80;;;;;;1855497;75;21583;-87
2023/01/21 03:12:18;;;;;;;27.77;20.15;;;21.20;83.50;;;;;;1823557;76;21239;-88
2023/01/21 03:18:15;;;;;;;24.45;19.35;;;21.40;83.00;;;;;;1857104;75;21114;-87
2023/01/21 03:20:48;;;;;;;28.20;20.08;;;21.50;82.80;;;;;;1860587;76;21243;-85
2023/01/21 03:23:22;;;;;;;31.07;20.43;;;21.50;82.60;;;;;;1869168;76;21059;-87
2023/01/21 03:25:54;;;;;;;30.30;21.57;;;21.60;82.50;;;;;;1865777;76;21204;-86
2023/01/21 03:28:27;;;;;;;37.63;24.95;;;21.70;82.20;;;;;;1860883;76;21161;-89
2023/01/21 03:31:09;;;;;;;29.80;19.73;;;21.80;82.10;;;;;;1865761;76;21181;-87
2023/01/21 03:33:44;;;;;;;24.27;19.02;;;21.80;81.50;;;;;;1867867;76;21079;-87
2023/01/21 03:36:39;;;;;;;31.05;19.73;;;21.90;81.50;;;;;;1884063;74;21201;-88
2023/01/21 03:39:30;;;;;;;28.65;19.77;;;22.00;81.30;;;;;;1869440;75;21212;-87
2023/01/21 03:42:02;;;;;;;28.73;19.98;;;22.10;80.90;;;;;;1859980;75;21669;-86
2023/01/21 03:44:33;;;;;;;25.15;18.60;;;22.20;80.60;;;;;;1868667;75;21082;-86
2023/01/21 03:47:07;;;;;;;27.50;18.70;;;22.20;80.30;;;;;;1859745;76;21189;-88
2023/01/21 03:49:43;;;;;;;26.87;17.57;;;22.20;80.20;;;;;;1870691;75;21182;-87
2023/01/21 03:52:15;;;;;;;25.60;19.20;;;22.30;79.80;;;;;;1860260;76;21256;-89
2023/01/21 03:54:48;;;;;;;30.77;19.80;;;22.50;79.80;;;;;;1882293;74;21373;-88
2023/01/21 03:57:19;;;;;;;24.65;17.77;;;22.60;79.40;;;;;;1869213;75;21052;-87
2023/01/21 03:59:50;;;;;;;24.63;17.70;;;22.80;78.30;;;;;;1830327;77;21074;-86
2023/01/21 04:02:21;;;;;;;22.67;16.37;;;22.90;77.60;;;;;;1878030;75;21122;-86
2023/01/21 04:04:52;;;;;;;26.15;17.95;;;23.10;77.00;;;;;;1859947;76;21664;-88
2023/01/21 04:07:22;;;;;;;27.70;18.65;;;23.20;76.80;;;;;;1850335;76;21186;-86
2023/01/21 04:09:53;;;;;;;25.90;19.70;;;23.40;76.00;;;;;;1874973;75;21076;-86
2023/01/21 04:12:24;;;;;;;32.08;20.23;;;23.50;75.60;;;;;;1831868;76;21239;-85
2023/01/21 04:14:55;;;;;;;24.47;17.37;;;23.60;75.00;;;;;;1865113;74;21239;-85
2023/01/21 04:17:27;;;;;;;28.32;18.55;;;23.70;74.30;;;;;;1855649;75;21053;-85
2023/01/21 04:19:57;;;;;;;23.83;17.05;;;23.90;74.10;;;;;;1833915;77;21081;-86
2023/01/21 04:22:28;;;;;;;20.92;14.68;;;24.00;74.10;;;;;;1866481;76;21231;-86
2023/01/21 04:24:59;;;;;;;28.85;15.58;;;24.10;71.90;;;;;;1857621;75;21090;-89
2023/01/21 04:27:30;;;;;;;24.18;15.35;;;24.20;72.60;;;;;;1856328;76;21269;-86
2023/01/21 04:30:01;;;;;;;22.17;15.50;;;24.20;71.70;;;;;;1824790;78;21613;-86
2023/01/21 04:32:32;;;;;;;20.62;15.43;;;24.40;71.20;;;;;;1849964;76;21532;-86
2023/01/21 04:35:03;;;;;;;24.02;15.65;;;24.50;70.40;;;;;;1859332;76;21074;-85
2023/01/21 04:37:34;;;;;;;21.42;15.28;;;24.50;70.40;;;;;;1858126;76;21169;-86
2023/01/21 04:40:06;;;;;;;18.80;15.50;;;24.60;71.30;;;;;;1836052;76;21145;-88
2023/01/21 04:42:37;;;;;;;19.75;15.00;;;24.70;69.60;;;;;;1858526;75;21082;-87
2023/01/21 04:45:09;;;;;;;23.18;16.27;;;24.80;69.20;;;;;;1849563;76;21571;-86
2023/01/21 04:47:43;;;;;;;22.95;16.42;;;24.90;68.80;;;;;;1885144;75;21115;-87
2023/01/21 04:50:15;;;;;;;26.68;16.42;;;24.90;68.80;;;;;;1879238;74;21131;-88
2023/01/21 04:52:46;;;;;;;22.52;15.70;;;25.00;69.30;;;;;;1834537;76;21323;-86
2023/01/21 04:55:17;;;;;;;21.55;16.52;;;25.20;68.60;;;;;;1864984;76;21125;-87
2023/01/21 04:57:48;;;;;;;24.82;17.27;;;25.30;68.90;;;;;;1841774;76;21150;-88
2023/01/21 05:00:20;;;;;;;23.50;16.97;;;25.30;68.30;;;;;;1887728;75;21147;-87
2023/01/21 05:02:50;;;;;;;20.57;15.55;;;25.40;67.30;;;;;;1860927;76;21074;-89
2023/01/21 05:05:21;;;;;;;22.45;16.55;;;25.50;67.10;;;;;;1872798;75;21140;-86
2023/01/21 05:07:55;;;;;;;23.32;17.45;;;25.60;66.80;;;;;;1848425;76;21157;-87
2023/01/21 05:10:26;;;;;;;24.87;17.65;;;25.60;66.30;;;;;;1853460;76;21652;-86
2023/01/21 05:12:58;;;;;;;27.02;17.98;;;25.70;66.90;;;;;;1863306;75;21212;-86
2023/01/21 05:15:29;;;;;;;30.65;20.70;;;25.80;65.30;;;;;;1844304;76;21183;-86
2023/01/21 05:18:00;;;;;;;29.72;22.02;;;25.90;65.60;;;;;;1864171;75;21138;-86
2023/01/21 05:20:33;;;;;;;35.08;25.17;;;26.00;64.40;;;;;;1861357;76;21575;-85
2023/01/21 05:23:03;;;;;;;37.88;25.50;;;26.00;65.30;;;;;;1857102;75;21185;-88
2023/01/21 05:25:34;;;;;;;33.10;21.27;;;26.00;64.70;;;;;;1893911;75;21106;-88
2023/01/21 05:28:05;;;;;;;35.95;24.45;;;26.10;64.50;;;;;;1860459;76;21146;-89
2023/01/21 05:30:36;;;;;;;29.12;20.57;;;26.10;64.60;;;;;;1861322;76;21130;-87
2023/01/21 05:33:08;;;;;;;33.63;21.37;;;26.10;64.40;;;;;;1853790;76;21472;-87
2023/01/21 05:35:39;;;;;;;27.00;19.52;;;26.20;65.60;;;;;;1859809;76;21129;-87
2023/01/21 05:38:10;;;;;;;29.18;19.42;;;26.20;64.60;;;;;;1869280;76;21137;-87
2023/01/21 05:40:41;;;;;;;36.13;23.05;;;26.30;63.40;;;;;;1859220;76;21094;-88
2023/01/21 05:43:11;;;;;;;25.52;16.15;;;26.30;63.70;;;;;;1864565;76;21079;-86
2023/01/21 05:45:42;;;;;;;20.97;14.95;;;26.40;61.80;;;;;;1864062;76;21236;-90
2023/01/21 05:48:13;;;;;;;19.87;14.73;;;26.40;61.80;;;;;;1885841;75;21091;-88
2023/01/21 05:50:44;;;;;;;20.30;14.73;;;26.50;62.60;;;;;;1855618;76;21165;-88
2023/01/21 05:53:15;;;;;;;18.10;14.80;;;26.60;63.20;;;;;;1829606;78;21235;-88
2023/01/21 05:55:46;;;;;;;21.10;14.90;;;26.60;60.80;;;;;;1837110;77;21138;-87
2023/01/21 05:58:17;;;;;;;17.37;14.53;;;26.70;61.40;;;;;;1852940;76;21931;-87
2023/01/21 06:00:48;;;;;;;18.65;14.35;;;26.70;60.20;;;;;;1862580;76;21135;-85
2023/01/21 06:03:19;;;;;;;22.17;14.28;;;26.80;60.90;;;;;;1845464;76;21111;-85
2023/01/21 06:05:51;;;;;;;18.35;14.00;;;26.90;61.20;;;;;;1859559;76;21200;-87
2023/01/21 06:08:22;;;;;;;22.13;13.85;;;26.90;60.60;;;;;;1830637;78;21083;-85
2023/01/21 06:10:55;;;;;;;20.60;13.18;;;27.00;60.60;;;;;;1841581;77;21136;-86
2023/01/21 06:13:26;;;;;;;18.70;14.25;;;27.00;60.90;;;;;;1848511;77;21106;-86
2023/01/21 06:15:57;;;;;;;19.32;13.83;;;27.10;59.80;;;;;;1850187;77;21169;-85
2023/01/21 06:18:28;;;;;;;19.62;14.35;;;27.20;72.50;;;;;;1840814;77;21250;-87
2023/01/21 06:21:03;;;;;;;18.55;12.93;;;26.90;67.90;;;;;;1837728;77;21084;-87
2023/01/21 06:23:34;;;;;;;22.05;14.00;;;27.20;78.70;;;;;;1857478;76;21108;-86
2023/01/21 06:26:05;;;;;;;19.55;14.05;;;27.20;69.80;;;;;;1873128;76;21201;-87
2023/01/21 06:28:36;;;;;;;22.93;14.10;;;27.20;59.80;;;;;;1831850;78;21200;-86
2023/01/21 06:31:07;;;;;;;22.45;14.33;;;27.30;59.60;;;;;;1845790;77;21139;-86
2023/01/21 06:33:38;;;;;;;24.18;15.35;;;27.20;58.90;;;;;;1857041;76;21262;-88
2023/01/21 06:36:09;;;;;;;22.27;14.25;;;27.20;59.10;;;;;;1851304;76;21180;-87
2023/01/21 06:38:40;;;;;;;18.27;13.45;;;27.20;58.80;;;;;;1854342;76;21103;-87
2023/01/21 06:41:11;;;;;;;17.70;13.65;;;27.30;58.60;;;;;;1854544;76;21131;-86
2023/01/21 06:43:42;;;;;;;17.48;13.50;;;27.30;59.00;;;;;;1844641;76;21673;-85
2023/01/21 06:46:13;;;;;;;21.77;14.05;;;27.40;58.70;;;;;;1830079;78;21215;-86
2023/01/21 06:48:44;;;;;;;17.15;13.20;;;27.40;59.30;;;;;;1859007;76;21158;-86
2023/01/21 06:51:14;;;;;;;22.17;13.43;;;27.40;58.30;;;;;;1824742;78;21213;-89
2023/01/21 06:53:45;;;;;;;19.32;13.85;;;27.50;58.50;;;;;;1846132;76;21107;-87
2023/01/21 06:56:16;;;;;;;19.00;14.30;;;27.60;58.80;;;;;;1836413;77;21208;-87
2023/01/21 06:58:47;;;;;;;19.82;13.83;;;27.50;59.00;;;;;;1871530;75;21174;-86
2023/01/21 07:01:17;;;;;;;18.55;13.38;;;27.60;58.50;;;;;;1831429;77;21185;-86
2023/01/21 07:03:48;;;;;;;19.92;13.98;;;27.60;58.20;;;;;;1852404;76;21067;-87
2023/01/21 07:06:21;;;;;;;17.90;13.48;;;27.60;58.50;;;;;;1827405;78;21558;-86
2023/01/21 07:08:51;;;;;;;19.60;14.30;;;27.60;57.90;;;;;;1851413;76;21571;-87
2023/01/21 07:11:22;;;;;;;20.50;14.45;;;27.70;58.10;;;;;;1889966;75;21072;-86
2023/01/21 07:13:53;;;;;;;21.85;14.30;;;27.70;58.20;;;;;;1856840;76;21141;-86
2023/01/21 07:16:26;;;;;;;24.30;15.72;;;27.70;58.40;;;;;;1857066;76;21110;-87
2023/01/21 07:18:57;;;;;;;19.55;14.40;;;27.70;58.40;;;;;;1883807;74;21123;-86
2023/01/21 07:21:29;;;;;;;18.73;14.18;;;27.80;58.90;;;;;;1845761;76;21595;-86
2023/01/21 07:24:00;;;;;;;19.75;14.58;;;27.80;58.80;;;;;;1858742;76;21055;-87
2023/01/21 07:26:34;;;;;;;17.60;14.13;;;27.80;58.40;;;;;;1828235;78;21550;-87
2023/01/21 07:29:04;;;;;;;19.10;14.47;;;27.80;58.20;;;;;;1853248;76;21169;-86
2023/01/21 07:31:36;;;;;;;22.82;14.78;;;27.80;57.80;;;;;;1826932;78;21150;-87
2023/01/21 07:34:07;;;;;;;24.30;13.93;;;27.80;57.50;;;;;;1892061;75;21216;-87
2023/01/21 07:36:37;;;;;;;21.80;14.78;;;27.80;57.50;;;;;;1869634;75;21137;-86
2023/01/21 07:39:08;;;;;;;16.77;13.93;;;27.80;58.30;;;;;;1860800;76;21086;-86
2023/01/21 07:41:39;;;;;;;19.17;13.72;;;27.80;58.00;;;;;;1855208;76;21070;-86
2023/01/21 07:44:10;;;;;;;20.02;14.18;;;27.70;57.40;;;;;;1861496;76;21051;-86
2023/01/21 07:46:41;;;;;;;20.00;14.60;;;27.70;57.90;;;;;;1858474;76;21075;-86
2023/01/21 07:49:16;;;;;;;17.62;12.98;;;27.70;57.60;;;;;;1860288;76;21137;-88
2023/01/21 07:51:45;;;;;;;21.77;14.47;;;27.70;56.90;;;;;;1858797;76;21161;-84
2023/01/21 07:54:16;;;;;;;20.82;13.80;;;27.60;56.90;;;;;;1861767;76;21203;-86
2023/01/21 07:56:47;;;;;;;21.97;14.40;;;27.70;57.10;;;;;;1860733;76;21125;-86
2023/01/21 07:59:18;;;;;;;20.75;14.53;;;27.70;57.20;;;;;;1884446;75;21559;-87
2023/01/21 08:01:49;;;;;;;16.82;14.38;;;27.70;57.50;;;;;;1862693;75;21085;-87
2023/01/21 08:04:20;;;;;;;19.80;14.05;;;27.70;57.30;;;;;;1867030;75;21542;-85
2023/01/21 08:06:55;;;;;;;18.07;13.22;;;27.60;57.50;;;;;;1849862;76;21200;-86
2023/01/21 08:09:26;;;;;;;26.57;16.42;;;27.70;56.70;;;;;;1863713;74;21074;-85
2023/01/21 08:11:57;;;;;;;21.97;14.18;;;27.60;57.30;;;;;;1882602;75;21052;-86
2023/01/21 08:14:28;;;;;;;19.87;14.35;;;27.60;57.00;;;;;;1886064;75;21225;-87
2023/01/21 08:16:59;;;;;;;20.50;14.23;;;27.60;56.90;;;;;;1842610;76;21185;-86
2023/01/21 08:19:30;;;;;;;31.57;14.75;;;27.60;57.10;;;;;;1828994;77;21102;-86
2023/01/21 08:22:01;;;;;;;20.05;13.95;;;27.70;57.00;;;;;;1842296;76;21126;-86
2023/01/21 08:24:32;;;;;;;19.40;14.25;;;27.60;56.90;;;;;;1862692;75;21056;-88
2023/01/21 08:27:03;;;;;;;21.33;13.98;;;27.60;56.80;;;;;;1850867;76;21083;-88
2023/01/21 08:29:33;;;;;;;22.75;14.50;;;27.60;57.10;;;;;;1838777;77;21086;-86
2023/01/21 08:32:04;;;;;;;20.82;13.72;;;27.60;57.20;;;;;;1842776;76;21254;-85
2023/01/21 08:34:36;;;;;;;21.70;15.00;;;27.50;57.00;;;;;;1842301;77;21582;-85
2023/01/21 08:37:07;;;;;;;18.12;13.88;;;27.50;57.00;;;;;;1842936;77;21223;-86
2023/01/21 08:39:38;;;;;;;20.32;13.78;;;27.50;56.80;;;;;;1849287;76;21118;-85
2023/01/21 08:42:09;;;;;;;20.12;14.75;;;27.50;57.10;;;;;;1841195;77;21192;-86
2023/01/21 08:44:39;;;;;;;19.27;13.03;;;27.50;56.90;;;;;;1876948;75;21700;-86
2023/01/21 08:47:10;;;;;;;19.75;12.98;;;27.50;57.10;;;;;;1876243;75;21122;-87
2023/01/21 08:49:41;;;;;;;17.10;13.25;;;27.50;57.10;;;;;;1834121;76;21206;-87
2023/01/21 08:52:12;;;;;;;18.27;12.80;;;27.50;57.10;;;;;;1882432;75;21500;-87
2023/01/21 08:54:43;;;;;;;18.02;12.33;;;27.50;57.20;;;;;;1854424;76;21202;-87
2023/01/21 08:57:14;;;;;;;15.80;12.80;;;27.50;56.80;;;;;;1845902;78;21145;-87
2023/01/21 08:59:44;;;;;;;17.32;13.28;;;27.50;57.00;;;;;;1874028;76;21080;-86
2023/01/21 09:02:15;;;;;;;18.52;13.95;;;27.50;56.80;;;;;;1874791;76;21118;-87
2023/01/21 09:04:49;;;;;;;21.85;14.23;;;27.50;56.90;;;;;;1878425;76;21167;-87
2023/01/21 09:07:19;;;;;;;14.98;12.55;;;27.50;57.10;;;;;;1882346;76;21072;-87
2023/01/21 09:09:50;;;;;;;19.67;12.95;;;27.50;56.80;;;;;;1879998;76;21190;-87
2023/01/21 09:12:21;;;;;;;20.20;13.15;;;27.50;56.70;;;;;;1875840;76;21048;-87
2023/01/21 09:14:51;;;;;;;19.17;12.50;;;27.40;56.40;;;;;;1874904;76;21275;-88
2023/01/21 09:17:23;;;;;;;16.85;12.45;;;27.50;56.50;;;;;;1851049;77;21146;-87
2023/01/21 09:19:54;;;;;;;19.90;12.33;;;27.50;56.20;;;;;;1829236;77;21052;-87
2023/01/21 09:22:24;;;;;;;17.55;13.58;;;27.50;56.30;;;;;;1801031;78;21111;-86
2023/01/21 09:24:55;;;;;;;15.85;12.80;;;27.40;56.00;;;;;;1863108;76;21080;-88
2023/01/21 09:27:27;;;;;;;15.00;12.28;;;27.40;57.10;;;;;;1813512;77;21095;-87
2023/01/21 09:29:58;;;;;;;16.23;12.05;;;27.40;56.50;;;;;;1830864;78;21103;-85
2023/01/21 09:32:28;;;;;;;16.42;12.28;;;27.40;56.60;;;;;;1811227;77;21560;-85
2023/01/21 09:34:59;;;;;;;18.23;12.13;;;27.40;56.90;;;;;;1813589;78;21193;-85
2023/01/21 09:37:33;;;;;;;16.35;12.10;;;27.40;56.90;;;;;;1832366;78;21606;-85
2023/01/21 09:40:02;;;;;;;23.10;11.95;;;27.40;56.20;;;;;;1822362;78;21634;-86
2023/01/21 09:42:34;;;;;;;23.50;12.85;;;27.30;56.50;;;;;;1822933;78;21631;-85
2023/01/21 09:45:06;;;;;;;16.45;12.23;;;27.30;56.70;;;;;;1825900;78;21080;-85
2023/01/21 09:47:39;;;;;;;20.45;12.90;;;27.30;57.10;;;;;;1821012;76;21647;-87
2023/01/21 09:50:18;;;;;;;17.10;12.10;;;27.20;56.90;;;;;;1819896;77;21209;-86
2023/01/21 09:52:51;;;;;;;16.37;12.43;;;27.20;56.80;;;;;;1860987;75;21147;-86
2023/01/21 09:55:25;;;;;;;27.32;14.25;;;27.10;56.80;;;;;;1806796;77;21179;-86
2023/01/21 09:58:16;;;;;;;16.27;12.40;;;27.10;57.10;;;;;;1811666;77;21142;-85
2023/01/21 10:01:04;;;;;;;27.40;14.30;;;27.00;57.10;;;;;;1815887;78;21162;-85
2023/01/21 10:03:46;;;;;;;18.02;12.90;;;27.00;57.40;;;;;;1827283;78;21649;-88
2023/01/21 10:06:34;;;;;;;17.45;12.10;;;26.90;57.60;;;;;;1828648;78;21183;-86
2023/01/21 10:09:08;;;;;;;17.12;12.18;;;26.90;57.30;;;;;;1853390;77;21084;-88
2023/01/21 10:12:00;;;;;;;19.85;12.60;;;26.90;57.30;;;;;;1815282;78;21137;-87
2023/01/21 10:14:52;;;;;;;17.32;12.13;;;26.90;57.80;;;;;;1832824;78;21064;-88
2023/01/21 10:17:25;;;;;;;14.85;11.95;;;26.80;57.70;;;;;;1825001;78;21223;-88
2023/01/21 10:20:14;;;;;;;18.30;12.78;;;26.70;58.00;;;;;;1834318;78;21087;-87
2023/01/21 10:22:47;;;;;;;20.35;13.03;;;26.70;58.10;;;;;;1874879;76;21069;-88
2023/01/21 10:25:23;;;;;;;18.67;13.03;;;26.70;58.40;;;;;;1852246;76;21734;-88
2023/01/21 10:27:57;;;;;;;17.92;12.65;;;26.60;58.30;;;;;;1851226;76;21085;-89
2023/01/21 10:30:40;;;;;;;18.25;12.90;;;26.60;58.30;;;;;;1857696;76;21101;-87
2023/01/21 10:33:19;;;;;;;18.98;12.78;;;26.60;58.40;;;;;;1825146;78;21101;-88
2023/01/21 10:36:04;;;;;;;21.10;13.55;;;26.50;58.50;;;;;;1866093;76;21340;-87
2023/01/21 10:39:04;;;;;;;18.10;13.43;;;26.50;58.60;;;;;;1886115;75;21143;-88
2023/01/21 10:41:57;;;;;;;15.40;12.00;;;26.50;58.80;;;;;;1891019;74;21105;-87
2023/01/21 10:44:51;;;;;;;18.65;13.15;;;26.40;58.70;;;;;;1870481;76;21093;-89
2023/01/21 10:47:30;;;;;;;19.48;13.25;;;26.40;58.70;;;;;;1869817;75;21100;-88
2023/01/21 10:50:36;;;;;;;17.48;13.03;;;26.30;58.80;;;;;;1853887;74;21139;-86
2023/01/21 10:53:24;;;;;;;19.30;12.63;;;26.30;58.90;;;;;;1898489;74;21652;-87
2023/01/21 10:56:19;;;;;;;18.25;13.30;;;26.30;59.20;;;;;;1896111;74;21700;-91
2023/01/21 10:58:58;;;;;;;22.05;14.10;;;26.20;59.30;;;;;;1824847;77;21160;-90
2023/01/21 11:01:34;;;;;;;21.82;15.18;;;26.20;60.40;;;;;;1879544;74;21175;-88
2023/01/21 11:04:25;;;;;;;20.82;14.85;;;26.20;59.70;;;;;;1893879;74;21044;-88
2023/01/21 11:07:04;;;;;;;26.95;16.12;;;26.20;59.80;;;;;;1892807;74;21072;-88
2023/01/21 11:09:37;;;;;;;31.70;16.25;;;26.10;59.90;;;;;;1874379;76;21672;-88
2023/01/21 11:12:19;;;;;;;34.03;18.07;;;26.10;60.20;;;;;;1868858;76;21101;-87
2023/01/21 11:14:52;;;;;;;41.10;19.60;;;26.00;60.40;;;;;;1864118;76;21108;-90
2023/01/21 11:17:32;;;;;;;32.10;18.50;;;26.00;60.60;;;;;;1863673;76;21194;-89
2023/01/21 11:20:05;;;;;;;32.98;17.92;;;26.00;60.80;;;;;;1859816;75;21695;-87
2023/01/21 11:22:41;;;;;;;31.50;20.43;;;26.00;61.20;;;;;;1865478;75;21230;-88
2023/01/21 11:25:22;;;;;;;40.28;23.67;;;25.90;61.30;;;;;;1859630;75;21070;-88
2023/01/21 11:27:53;;;;;;;39.98;24.32;;;25.90;61.70;;;;;;1859914;76;21141;-86
2023/01/21 11:30:38;;;;;;;44.55;27.30;;;25.80;61.90;;;;;;1875506;76;21078;-87
2023/01/21 11:33:15;;;;;;;58.40;30.97;;;25.80;62.30;;;;;;1854164;76;21148;-90
2023/01/21 11:35:47;;;;;;;62.73;28.52;;;25.80;62.60;;;;;;1870205;76;21118;-88
2023/01/21 11:38:32;;;;;;;58.65;28.98;;;25.70;62.60;;;;;;1871391;76;21175;-89
2023/01/21 11:41:12;;;;;;;62.23;26.13;;;25.70;63.00;;;;;;1878468;76;21125;-90
2023/01/21 11:43:54;;;;;;;46.18;23.73;;;25.60;62.90;;;;;;1831646;76;21533;-88
2023/01/21 11:46:39;;;;;;;42.83;22.27;;;25.60;63.20;;;;;;1884967;75;21094;-89
2023/01/21 11:49:12;;;;;;;46.40;23.00;;;25.60;63.40;;;;;;1866793;75;21202;-88
2023/01/21 11:51:45;;;;;;;40.25;23.57;;;25.60;63.60;;;;;;1851998;75;21212;-89
2023/01/21 11:54:21;;;;;;;26.02;16.87;;;25.50;63.60;;;;;;1874420;74;21133;-89
2023/01/21 11:57:00;;;;;;;27.97;16.27;;;25.50;63.30;;;;;;1837146;76;21529;-88
2023/01/21 11:59:36;;;;;;;26.33;17.40;;;25.40;63.20;;;;;;1869073;76;21129;-89
2023/01/21 12:02:30;;;;;;;27.32;18.65;;;25.40;63.50;;;;;;1866147;76;21083;-88
2023/01/21 12:05:04;;;;;;;35.40;19.67;;;25.40;63.80;;;;;;1872329;75;21102;-88
2023/01/21 12:07:38;;;;;;;33.98;20.50;;;25.30;63.90;;;;;;1895228;73;21121;-88
2023/01/21 12:10:14;;;;;;;52.80;23.65;;;25.40;64.20;;;;;;1858154;75;21076;-87
2023/01/21 12:13:02;;;;;;;32.63;21.20;;;25.30;64.50;;;;;;1857214;75;21131;-87
2023/01/21 12:15:57;;;;;;;28.52;19.20;;;25.30;65.50;;;;;;1890758;74;21171;-89
2023/01/21 12:18:55;;;;;;;28.35;19.27;;;25.30;64.70;;;;;;1843151;75;21079;-88
2023/01/21 12:21:49;;;;;;;28.30;18.80;;;25.30;64.80;;;;;;1865435;75;21633;-90
2023/01/21 12:24:32;;;;;;;26.02;18.25;;;25.30;64.90;;;;;;1856200;75;21084;-91
2023/01/21 12:27:14;;;;;;;24.72;17.30;;;25.30;65.50;;;;;;1856057;76;21581;-89
2023/01/21 12:30:08;;;;;;;27.45;18.52;;;25.30;65.50;;;;;;1892200;75;21617;-88
2023/01/21 12:32:42;;;;;;;24.35;19.00;;;25.30;65.60;;;;;;1887379;75;21110;-90
2023/01/21 12:35:15;;;;;;;37.17;18.90;;;25.20;65.70;;;;;;1879512;75;21063;-90
2023/01/21 12:38:04;;;;;;;31.37;18.55;;;25.20;65.90;;;;;;1892154;75;21105;-90
2023/01/21 12:40:52;;;;;;;27.62;19.90;;;25.20;66.10;;;;;;1876624;75;21166;-88
2023/01/21 12:43:35;;;;;;;29.20;20.72;;;25.20;66.30;;;;;;1878905;75;21194;-88
2023/01/21 12:46:31;;;;;;;30.52;20.37;;;25.10;66.50;;;;;;1877962;75;21569;-91
2023/01/21 12:49:04;;;;;;;32.67;20.57;;;25.10;66.90;;;;;;1843649;76;21592;-89
2023/01/21 12:51:38;;;;;;;30.77;20.65;;;25.10;67.00;;;;;;1843196;76;21176;-89
2023/01/21 12:54:34;;;;;;;33.13;20.30;;;25.10;67.50;;;;;;1828550;76;21114;-89
2023/01/21 12:57:19;;;;;;;34.43;20.85;;;25.10;67.60;;;;;;1836645;78;21104;-89
2023/01/21 12:59:55;;;;;;;34.75;21.12;;;25.00;67.70;;;;;;1829264;78;21535;-91
2023/01/21 13:02:37;;;;;;;31.47;20.93;;;25.00;68.00;;;;;;1859913;76;21163;-91
2023/01/21 13:05:34;;;;;;;33.10;21.80;;;25.00;68.20;;;;;;1853572;76;21114;-90
2023/01/21 13:08:19;;;;;;;33.70;20.72;;;24.90;68.40;;;;;;1860494;76;21116;-90
2023/01/21 13:10:53;;;;;;;37.67;22.13;;;24.90;68.70;;;;;;1866762;75;21086;-89
2023/01/21 13:13:41;;;;;;;32.20;22.77;;;24.90;68.90;;;;;;1859795;76;21139;-89
2023/01/21 13:16:12;;;;;;;36.15;21.62;;;24.90;69.30;;;;;;1861055;76;21106;-89